< < Back
Terminal Aerodrome Forecast


Current Version              Previous Versions:   1  2  3  4  5  6  7  8  9  

Terminal Aerodrome Forecast

722
FTUS42 KGSP 202321
TAFHKY
TAF
KHKY 202321Z 2100/2124 28007KT P6SM FEW250
     FM211300 34004KT P6SM FEW250
     FM212300 11003KT P6SM FEW250=



Latest METAR

853
SAUS70 KWBC 220000
MTRHKY
METAR KHKY 212353Z AUTO 07004KT 10SM CLR 07/M11 A3044 RMK AO2 SLP303
T00671111 10128 20056 53022


USA.gov is the U.S. government's official web portal to all federal, state and local government web resources and services.